Terminal Aerodrome Forecast
Issued by NWS

Home | Current Version | Previous Version | Text Only | Print | Product List | Glossary On
Versions: 1 2 3 4 5 6 7 8 9 10 11 12 13 14 15 16 17 18 19 20 21 22 23 24 25 26 27 28 29 30 31
155
FTUS43 KDVN 181900 AAC
TAFCID
TAF AMD
KCID 181900Z 1819/1918 35011KT 4SM -FZDZ BR OVC008
     FM182100 36013G17KT 3SM -SN BR OVC010
     FM190100 33012KT 6SM BR OVC012
     FM190700 33011KT P6SM SCT012 BKN020
     FM191200 35011KT P6SM SCT020=

USA.gov is the U.S. government's official web portal to all federal, state and local government web resources and services.